TGW644 WSSS-VTSP
Flight info
| Callsign | TGW644 |
|---|---|
| Flight time | 1h 23m |
| Altitude | 38000 |
| Route | AROSO5B AROSO Y513 KALIL Y501 RINBA Y502 DUBAX R325 URGAD URGAD1D |
| Aircraft | A320/M-SDE3FGHIRWY/LB1 |
Departure
| Time | 2026-05-07 09:27 |
|---|---|
| Airport | Singapore Changi Airport (WSSS) |
Arrival
| Time | 2026-05-07 10:50 |
|---|---|
| Airport | Phuket International Airport (VTSP) |
| Time | Latitude | Longitude | Altitude | Speed | Heading |
|---|---|---|---|---|---|
| 2026-05-07 09:05 | 1.36380 | 103.99018 | 30 ft | 0 kts | 292° |
| 2026-05-07 09:15 | 1.36380 | 103.99019 | 30 ft | 0 kts | 292° |
| 2026-05-07 09:19 | 1.36371 | 103.99038 | 30 ft | 4 kts | 295° |
| 2026-05-07 09:19 | 1.36359 | 103.99062 | 30 ft | 4 kts | 300° |
| 2026-05-07 09:19 | 1.36344 | 103.99084 | 30 ft | 4 kts | 312° |
| 2026-05-07 09:19 | 1.36324 | 103.99100 | 30 ft | 4 kts | 358° |
| 2026-05-07 09:20 | 1.36313 | 103.99098 | 30 ft | 1 kts | 20° |
| 2026-05-07 09:20 | 1.36312 | 103.99098 | 30 ft | 1 kts | 20° |
| 2026-05-07 09:23 | 1.36327 | 103.99103 | 30 ft | 4 kts | 20° |
| 2026-05-07 09:23 | 1.36363 | 103.99117 | 30 ft | 7 kts | 23° |
| 2026-05-07 09:23 | 1.36415 | 103.99139 | 30 ft | 9 kts | 23° |
| 2026-05-07 09:23 | 1.36466 | 103.99186 | 30 ft | 12 kts | 53° |
| 2026-05-07 09:24 | 1.36521 | 103.99257 | 30 ft | 14 kts | 52° |
| 2026-05-07 09:24 | 1.36584 | 103.99341 | 30 ft | 13 kts | 57° |
| 2026-05-07 09:24 | 1.36567 | 103.99433 | 30 ft | 15 kts | 113° |
| 2026-05-07 09:24 | 1.36522 | 103.99538 | 30 ft | 18 kts | 112° |
| 2026-05-07 09:25 | 1.36474 | 103.99650 | 30 ft | 17 kts | 113° |
| 2026-05-07 09:25 | 1.36435 | 103.99742 | 30 ft | 13 kts | 112° |
| 2026-05-07 09:25 | 1.36397 | 103.99831 | 30 ft | 14 kts | 113° |
| 2026-05-07 09:25 | 1.36331 | 103.99877 | 30 ft | 13 kts | 172° |
| 2026-05-07 09:26 | 1.36229 | 103.99888 | 30 ft | 16 kts | 173° |
| 2026-05-07 09:26 | 1.36114 | 103.99863 | 30 ft | 18 kts | 202° |
| 2026-05-07 09:26 | 1.35973 | 103.99804 | 30 ft | 32 kts | 202° |
| 2026-05-07 09:26 | 1.35602 | 103.99646 | 30 ft | 90 kts | 202° |
| 2026-05-07 09:27 | 1.34844 | 103.99327 | 31 ft | 143 kts | 203° |
| 2026-05-07 09:27 | 1.33803 | 103.98882 | 168 ft | 173 kts | 200° |
| 2026-05-07 09:27 | 1.31635 | 103.97964 | 1654 ft | 167 kts | 202° |
| 2026-05-07 09:28 | 1.30575 | 103.97499 | 2311 ft | 167 kts | 203° |
| 2026-05-07 09:28 | 1.29461 | 103.97014 | 2645 ft | 184 kts | 203° |
| 2026-05-07 09:28 | 1.28204 | 103.96484 | 2906 ft | 208 kts | 202° |
| 2026-05-07 09:28 | 1.26791 | 103.95896 | 3255 ft | 232 kts | 202° |
| 2026-05-07 09:29 | 1.25221 | 103.95246 | 3655 ft | 256 kts | 201° |
| 2026-05-07 09:29 | 1.23438 | 103.94895 | 4286 ft | 269 kts | 174° |
| 2026-05-07 09:29 | 1.21688 | 103.95550 | 5061 ft | 274 kts | 143° |
| 2026-05-07 09:29 | 1.20218 | 103.96780 | 5955 ft | 277 kts | 139° |
| 2026-05-07 09:30 | 1.18765 | 103.98057 | 6813 ft | 279 kts | 138° |
| 2026-05-07 09:30 | 1.17329 | 103.99377 | 7622 ft | 282 kts | 131° |
| 2026-05-07 09:30 | 1.16375 | 104.01058 | 8376 ft | 286 kts | 105° |
| 2026-05-07 09:30 | 1.16259 | 104.03034 | 9158 ft | 289 kts | 79° |
| 2026-05-07 09:31 | 1.17043 | 104.04886 | 9906 ft | 294 kts | 55° |
| 2026-05-07 09:31 | 1.18317 | 104.06533 | 10336 ft | 310 kts | 52° |
| 2026-05-07 09:31 | 1.19827 | 104.08177 | 10494 ft | 333 kts | 43° |
| 2026-05-07 09:31 | 1.21731 | 104.09634 | 10629 ft | 356 kts | 33° |
| 2026-05-07 09:32 | 1.24003 | 104.10774 | 10779 ft | 375 kts | 20° |
| 2026-05-07 09:32 | 1.26585 | 104.11297 | 11222 ft | 384 kts | 4° |
| 2026-05-07 09:32 | 1.29268 | 104.11105 | 11772 ft | 390 kts | 349° |
| 2026-05-07 09:32 | 1.31828 | 104.10181 | 12339 ft | 395 kts | 333° |
| 2026-05-07 09:33 | 1.34045 | 104.08543 | 12886 ft | 400 kts | 317° |
| 2026-05-07 09:33 | 1.36107 | 104.06659 | 13447 ft | 403 kts | 319° |
| 2026-05-07 09:33 | 1.38243 | 104.04833 | 13953 ft | 406 kts | 321° |
| 2026-05-07 09:33 | 1.40488 | 104.03110 | 14435 ft | 408 kts | 329° |
| 2026-05-07 09:34 | 1.43008 | 104.01807 | 14907 ft | 409 kts | 339° |
| 2026-05-07 09:34 | 1.45718 | 104.00894 | 15376 ft | 412 kts | 344° |
| 2026-05-07 09:34 | 1.48460 | 104.00027 | 15856 ft | 415 kts | 343° |
| 2026-05-07 09:34 | 1.51218 | 103.99131 | 16367 ft | 418 kts | 343° |
| 2026-05-07 09:35 | 1.53990 | 103.98221 | 16820 ft | 421 kts | 343° |
| 2026-05-07 09:35 | 1.56779 | 103.97306 | 17284 ft | 424 kts | 343° |
| 2026-05-07 09:35 | 1.59593 | 103.96388 | 17750 ft | 427 kts | 343° |
| 2026-05-07 09:35 | 1.62429 | 103.95468 | 18182 ft | 430 kts | 343° |
| 2026-05-07 09:36 | 1.65280 | 103.94546 | 18562 ft | 432 kts | 343° |
| 2026-05-07 09:36 | 1.68148 | 103.93619 | 18958 ft | 435 kts | 343° |
| 2026-05-07 09:36 | 1.71030 | 103.92675 | 19345 ft | 437 kts | 341° |
| 2026-05-07 09:36 | 1.73808 | 103.91397 | 19712 ft | 442 kts | 331° |
| 2026-05-07 09:37 | 1.76315 | 103.89656 | 20080 ft | 447 kts | 321° |
| 2026-05-07 09:37 | 1.78518 | 103.87449 | 20442 ft | 451 kts | 310° |
| 2026-05-07 09:37 | 1.80441 | 103.84956 | 20809 ft | 454 kts | 308° |
| 2026-05-07 09:37 | 1.82366 | 103.82441 | 21163 ft | 456 kts | 308° |
| 2026-05-07 09:38 | 1.84306 | 103.79918 | 21510 ft | 459 kts | 309° |
| 2026-05-07 09:38 | 1.86264 | 103.77384 | 21849 ft | 461 kts | 309° |
| 2026-05-07 09:38 | 1.88233 | 103.74840 | 22157 ft | 464 kts | 309° |
| 2026-05-07 09:38 | 1.90215 | 103.72284 | 22478 ft | 466 kts | 309° |
| 2026-05-07 09:39 | 1.92205 | 103.69714 | 22793 ft | 469 kts | 309° |
| 2026-05-07 09:39 | 1.94202 | 103.67128 | 23098 ft | 471 kts | 309° |
| 2026-05-07 09:39 | 1.96206 | 103.64528 | 23386 ft | 473 kts | 309° |
| 2026-05-07 09:39 | 1.98221 | 103.61912 | 23647 ft | 475 kts | 309° |
| 2026-05-07 09:40 | 2.00239 | 103.59287 | 23909 ft | 477 kts | 309° |
| 2026-05-07 09:40 | 2.02262 | 103.56647 | 24169 ft | 479 kts | 308° |
| 2026-05-07 09:40 | 2.04290 | 103.54002 | 24419 ft | 480 kts | 308° |
| 2026-05-07 09:40 | 2.06328 | 103.51349 | 24667 ft | 482 kts | 308° |
| 2026-05-07 09:41 | 2.08374 | 103.48689 | 24914 ft | 483 kts | 308° |
| 2026-05-07 09:41 | 2.10429 | 103.46021 | 25155 ft | 485 kts | 308° |
| 2026-05-07 09:41 | 2.12478 | 103.43343 | 25394 ft | 486 kts | 307° |
| 2026-05-07 09:41 | 2.14252 | 103.40452 | 25633 ft | 489 kts | 297° |
| 2026-05-07 09:42 | 2.15564 | 103.37311 | 25872 ft | 491 kts | 288° |
| 2026-05-07 09:42 | 2.16526 | 103.34026 | 26115 ft | 493 kts | 286° |
| 2026-05-07 09:42 | 2.17481 | 103.30727 | 26358 ft | 495 kts | 287° |
| 2026-05-07 09:42 | 2.18448 | 103.27423 | 26610 ft | 496 kts | 287° |
| 2026-05-07 09:43 | 2.19423 | 103.24111 | 26924 ft | 496 kts | 287° |
| 2026-05-07 09:43 | 2.20398 | 103.20808 | 27309 ft | 495 kts | 287° |
| 2026-05-07 09:43 | 2.21369 | 103.17512 | 27678 ft | 494 kts | 287° |
| 2026-05-07 09:43 | 2.22335 | 103.14218 | 28072 ft | 493 kts | 287° |
| 2026-05-07 09:44 | 2.23296 | 103.10934 | 28459 ft | 492 kts | 287° |
| 2026-05-07 09:44 | 2.24256 | 103.07657 | 28850 ft | 491 kts | 287° |
| 2026-05-07 09:44 | 2.25212 | 103.04392 | 29252 ft | 490 kts | 287° |
| 2026-05-07 09:44 | 2.26153 | 103.01170 | 29661 ft | 489 kts | 287° |
| 2026-05-07 09:45 | 2.27105 | 102.97912 | 30071 ft | 488 kts | 287° |
| 2026-05-07 09:45 | 2.28057 | 102.94658 | 30443 ft | 486 kts | 287° |
| 2026-05-07 09:45 | 2.29006 | 102.91411 | 30810 ft | 486 kts | 287° |
| 2026-05-07 09:45 | 2.29953 | 102.88172 | 31184 ft | 484 kts | 287° |
| 2026-05-07 09:46 | 2.30896 | 102.84946 | 31566 ft | 483 kts | 287° |
| 2026-05-07 09:46 | 2.31841 | 102.81726 | 31952 ft | 482 kts | 287° |
| 2026-05-07 09:46 | 2.32786 | 102.78517 | 32342 ft | 481 kts | 287° |
| 2026-05-07 09:46 | 2.33726 | 102.75315 | 32777 ft | 479 kts | 287° |
| 2026-05-07 09:47 | 2.34662 | 102.72118 | 33187 ft | 478 kts | 287° |
| 2026-05-07 09:47 | 2.35596 | 102.68931 | 33608 ft | 477 kts | 287° |
| 2026-05-07 09:47 | 2.36525 | 102.65750 | 33981 ft | 476 kts | 287° |
| 2026-05-07 09:47 | 2.37449 | 102.62575 | 34341 ft | 475 kts | 287° |
| 2026-05-07 09:48 | 2.38369 | 102.59411 | 34694 ft | 474 kts | 287° |
| 2026-05-07 09:48 | 2.39290 | 102.56249 | 35040 ft | 473 kts | 287° |
| 2026-05-07 09:48 | 2.40212 | 102.53096 | 35384 ft | 472 kts | 287° |
| 2026-05-07 09:48 | 2.41135 | 102.49944 | 35719 ft | 471 kts | 287° |
| 2026-05-07 09:49 | 2.42057 | 102.46802 | 36055 ft | 470 kts | 287° |
| 2026-05-07 09:49 | 2.42977 | 102.43661 | 36379 ft | 470 kts | 287° |
| 2026-05-07 09:49 | 2.43893 | 102.40532 | 36699 ft | 469 kts | 287° |
| 2026-05-07 09:49 | 2.44872 | 102.37421 | 37011 ft | 468 kts | 292° |
| 2026-05-07 09:50 | 2.46260 | 102.34539 | 37325 ft | 466 kts | 302° |
| 2026-05-07 09:50 | 2.48123 | 102.31900 | 37614 ft | 464 kts | 312° |
| 2026-05-07 09:50 | 2.50397 | 102.29617 | 37755 ft | 464 kts | 321° |
| 2026-05-07 09:51 | 2.55491 | 102.25631 | 37775 ft | 465 kts | 323° |
| 2026-05-07 09:51 | 2.60583 | 102.21633 | 37768 ft | 465 kts | 323° |
| 2026-05-07 09:52 | 2.65674 | 102.17631 | 37763 ft | 465 kts | 323° |
| 2026-05-07 09:52 | 2.70766 | 102.13637 | 37760 ft | 465 kts | 323° |
| 2026-05-07 09:53 | 2.75859 | 102.09638 | 37756 ft | 465 kts | 323° |
| 2026-05-07 09:53 | 2.80091 | 102.06317 | 37756 ft | 465 kts | 323° |
| 2026-05-07 09:54 | 2.85190 | 102.02314 | 37754 ft | 466 kts | 323° |
| 2026-05-07 09:54 | 2.90290 | 101.98314 | 37758 ft | 466 kts | 323° |
| 2026-05-07 09:55 | 2.95382 | 101.94311 | 37759 ft | 466 kts | 323° |
| 2026-05-07 09:55 | 3.00477 | 101.90306 | 37763 ft | 466 kts | 323° |
| 2026-05-07 09:56 | 3.05578 | 101.86301 | 37768 ft | 466 kts | 323° |
| 2026-05-07 09:56 | 3.10677 | 101.82300 | 37775 ft | 466 kts | 323° |
| 2026-05-07 09:57 | 3.15769 | 101.78297 | 37771 ft | 466 kts | 323° |
| 2026-05-07 09:57 | 3.20863 | 101.74288 | 37775 ft | 466 kts | 323° |
| 2026-05-07 09:58 | 3.25929 | 101.70312 | 37779 ft | 466 kts | 323° |
| 2026-05-07 09:58 | 3.31060 | 101.66281 | 37779 ft | 466 kts | 323° |
| 2026-05-07 09:59 | 3.36619 | 101.63108 | 37785 ft | 463 kts | 337° |
| 2026-05-07 09:59 | 3.42518 | 101.60496 | 37798 ft | 463 kts | 337° |
| 2026-05-07 10:00 | 3.48415 | 101.57882 | 37808 ft | 464 kts | 337° |
| 2026-05-07 10:00 | 3.54314 | 101.55258 | 37813 ft | 464 kts | 337° |
| 2026-05-07 10:01 | 3.60217 | 101.52636 | 37820 ft | 464 kts | 337° |
| 2026-05-07 10:01 | 3.66122 | 101.50011 | 37822 ft | 464 kts | 337° |
| 2026-05-07 10:02 | 3.72023 | 101.47382 | 37821 ft | 464 kts | 337° |
| 2026-05-07 10:02 | 3.77926 | 101.44756 | 37822 ft | 464 kts | 337° |
| 2026-05-07 10:03 | 3.83828 | 101.42135 | 37820 ft | 464 kts | 337° |
| 2026-05-07 10:03 | 3.89733 | 101.39506 | 37821 ft | 464 kts | 337° |
| 2026-05-07 10:04 | 3.95605 | 101.36892 | 37828 ft | 464 kts | 337° |
| 2026-05-07 10:04 | 4.01508 | 101.34270 | 37831 ft | 464 kts | 337° |
| 2026-05-07 10:05 | 4.07420 | 101.31641 | 37831 ft | 465 kts | 337° |
| 2026-05-07 10:05 | 4.13328 | 101.29008 | 37833 ft | 465 kts | 337° |
| 2026-05-07 10:06 | 4.19242 | 101.26371 | 37834 ft | 465 kts | 337° |
| 2026-05-07 10:06 | 4.25153 | 101.23741 | 37837 ft | 465 kts | 337° |
| 2026-05-07 10:07 | 4.31070 | 101.21112 | 37821 ft | 465 kts | 337° |
| 2026-05-07 10:07 | 4.36992 | 101.18474 | 37803 ft | 465 kts | 337° |
| 2026-05-07 10:08 | 4.42908 | 101.15842 | 37786 ft | 465 kts | 337° |
| 2026-05-07 10:08 | 4.48825 | 101.13208 | 37770 ft | 465 kts | 337° |
| 2026-05-07 10:09 | 4.54745 | 101.10568 | 37771 ft | 465 kts | 337° |
| 2026-05-07 10:09 | 4.60662 | 101.07942 | 37768 ft | 465 kts | 338° |
| 2026-05-07 10:10 | 4.66577 | 101.05396 | 37773 ft | 465 kts | 338° |
| 2026-05-07 10:10 | 4.72533 | 101.02857 | 37788 ft | 465 kts | 338° |
| 2026-05-07 10:11 | 4.78487 | 101.00300 | 37805 ft | 465 kts | 338° |
| 2026-05-07 10:11 | 4.84433 | 100.97733 | 37827 ft | 465 kts | 338° |
| 2026-05-07 10:12 | 4.90388 | 100.95164 | 37839 ft | 466 kts | 338° |
| 2026-05-07 10:12 | 4.96343 | 100.92588 | 37842 ft | 466 kts | 338° |
| 2026-05-07 10:13 | 5.02303 | 100.90015 | 37844 ft | 467 kts | 338° |
| 2026-05-07 10:13 | 5.08268 | 100.87440 | 37844 ft | 467 kts | 338° |
| 2026-05-07 10:14 | 5.14231 | 100.84861 | 37843 ft | 466 kts | 338° |
| 2026-05-07 10:14 | 5.20189 | 100.82282 | 37842 ft | 466 kts | 338° |
| 2026-05-07 10:15 | 5.26160 | 100.79705 | 37839 ft | 467 kts | 338° |
| 2026-05-07 10:15 | 5.32089 | 100.77149 | 37834 ft | 467 kts | 338° |
| 2026-05-07 10:16 | 5.38012 | 100.74472 | 37834 ft | 468 kts | 331° |
| 2026-05-07 10:16 | 5.43676 | 100.71257 | 37819 ft | 468 kts | 331° |
| 2026-05-07 10:17 | 5.49350 | 100.68046 | 37814 ft | 468 kts | 331° |
| 2026-05-07 10:17 | 5.55026 | 100.64837 | 37813 ft | 468 kts | 331° |
| 2026-05-07 10:18 | 5.60702 | 100.61629 | 37810 ft | 468 kts | 331° |
| 2026-05-07 10:18 | 5.66378 | 100.58423 | 37812 ft | 468 kts | 331° |
| 2026-05-07 10:19 | 5.72059 | 100.55208 | 37815 ft | 468 kts | 330° |
| 2026-05-07 10:19 | 5.77737 | 100.51992 | 37820 ft | 468 kts | 330° |
| 2026-05-07 10:20 | 5.83339 | 100.48733 | 37820 ft | 468 kts | 329° |
| 2026-05-07 10:20 | 5.88909 | 100.45350 | 37812 ft | 468 kts | 329° |
| 2026-05-07 10:21 | 5.94483 | 100.41962 | 37800 ft | 468 kts | 329° |
| 2026-05-07 10:21 | 6.00067 | 100.38601 | 37789 ft | 468 kts | 329° |
| 2026-05-07 10:22 | 6.05664 | 100.35252 | 37777 ft | 468 kts | 329° |
| 2026-05-07 10:22 | 6.11256 | 100.31907 | 37772 ft | 467 kts | 329° |
| 2026-05-07 10:23 | 6.16842 | 100.28553 | 37772 ft | 467 kts | 329° |
| 2026-05-07 10:23 | 6.22394 | 100.25217 | 37775 ft | 467 kts | 329° |
| 2026-05-07 10:24 | 6.27972 | 100.21862 | 37785 ft | 467 kts | 329° |
| 2026-05-07 10:24 | 6.33545 | 100.18509 | 37793 ft | 467 kts | 329° |
| 2026-05-07 10:25 | 6.39120 | 100.15156 | 37807 ft | 466 kts | 329° |
| 2026-05-07 10:25 | 6.44370 | 100.11368 | 37811 ft | 465 kts | 315° |
| 2026-05-07 10:26 | 6.48750 | 100.06579 | 37807 ft | 465 kts | 312° |
| 2026-05-07 10:26 | 6.53111 | 100.01767 | 37805 ft | 465 kts | 312° |
| 2026-05-07 10:27 | 6.57484 | 99.96961 | 37808 ft | 466 kts | 312° |
| 2026-05-07 10:27 | 6.61848 | 99.92138 | 37808 ft | 466 kts | 312° |
| 2026-05-07 10:28 | 6.66211 | 99.87319 | 37810 ft | 466 kts | 312° |
| 2026-05-07 10:28 | 6.70582 | 99.82490 | 37812 ft | 466 kts | 312° |
| 2026-05-07 10:29 | 6.74925 | 99.77682 | 37814 ft | 467 kts | 312° |
| 2026-05-07 10:29 | 6.79289 | 99.72849 | 37818 ft | 467 kts | 312° |
| 2026-05-07 10:30 | 6.85852 | 99.65594 | 37815 ft | 467 kts | 312° |
| 2026-05-07 10:30 | 6.90234 | 99.60757 | 37818 ft | 468 kts | 312° |
| 2026-05-07 10:31 | 6.94612 | 99.55906 | 37818 ft | 468 kts | 312° |
| 2026-05-07 10:31 | 6.98991 | 99.51054 | 37820 ft | 468 kts | 312° |
| 2026-05-07 10:32 | 7.03403 | 99.46226 | 37822 ft | 468 kts | 313° |
| 2026-05-07 10:32 | 7.07901 | 99.41458 | 37076 ft | 472 kts | 314° |
| 2026-05-07 10:33 | 7.10183 | 99.39053 | 36239 ft | 477 kts | 314° |
| 2026-05-07 10:33 | 7.12477 | 99.36629 | 35262 ft | 480 kts | 314° |
| 2026-05-07 10:33 | 7.14788 | 99.34178 | 34254 ft | 484 kts | 314° |
| 2026-05-07 10:33 | 7.17108 | 99.31708 | 33161 ft | 487 kts | 314° |
| 2026-05-07 10:34 | 7.19441 | 99.29219 | 32004 ft | 490 kts | 314° |
| 2026-05-07 10:34 | 7.21761 | 99.26738 | 30852 ft | 493 kts | 314° |
| 2026-05-07 10:34 | 7.24118 | 99.24215 | 29645 ft | 496 kts | 314° |
| 2026-05-07 10:34 | 7.26495 | 99.21674 | 28202 ft | 499 kts | 314° |
| 2026-05-07 10:35 | 7.28886 | 99.19123 | 26749 ft | 503 kts | 314° |
| 2026-05-07 10:35 | 7.31293 | 99.16553 | 25454 ft | 506 kts | 314° |
| 2026-05-07 10:35 | 7.33737 | 99.13987 | 24261 ft | 507 kts | 317° |
| 2026-05-07 10:35 | 7.36507 | 99.11839 | 23795 ft | 500 kts | 325° |
| 2026-05-07 10:36 | 7.39329 | 99.09812 | 23214 ft | 496 kts | 325° |
| 2026-05-07 10:36 | 7.42128 | 99.07771 | 21932 ft | 497 kts | 324° |
| 2026-05-07 10:36 | 7.44897 | 99.05735 | 21187 ft | 486 kts | 324° |
| 2026-05-07 10:36 | 7.47595 | 99.03752 | 20019 ft | 478 kts | 324° |
| 2026-05-07 10:37 | 7.50272 | 99.01794 | 19074 ft | 472 kts | 325° |
| 2026-05-07 10:37 | 7.52917 | 98.99869 | 18166 ft | 466 kts | 325° |
| 2026-05-07 10:37 | 7.55515 | 98.97982 | 16969 ft | 457 kts | 325° |
| 2026-05-07 10:37 | 7.58090 | 98.96117 | 15954 ft | 453 kts | 325° |
| 2026-05-07 10:38 | 7.60631 | 98.94281 | 14989 ft | 447 kts | 325° |
| 2026-05-07 10:38 | 7.63135 | 98.92468 | 14124 ft | 441 kts | 325° |
| 2026-05-07 10:38 | 7.65607 | 98.90672 | 13296 ft | 434 kts | 325° |
| 2026-05-07 10:38 | 7.68046 | 98.88896 | 12585 ft | 425 kts | 325° |
| 2026-05-07 10:39 | 7.70344 | 98.87219 | 12268 ft | 391 kts | 325° |
| 2026-05-07 10:39 | 7.72465 | 98.85673 | 12030 ft | 361 kts | 325° |
| 2026-05-07 10:39 | 7.74397 | 98.84267 | 11907 ft | 334 kts | 325° |
| 2026-05-07 10:39 | 7.76241 | 98.82926 | 11707 ft | 313 kts | 325° |
| 2026-05-07 10:40 | 7.77939 | 98.81694 | 11529 ft | 295 kts | 326° |
| 2026-05-07 10:40 | 7.79577 | 98.80510 | 11176 ft | 286 kts | 326° |
| 2026-05-07 10:40 | 7.81179 | 98.79349 | 10830 ft | 280 kts | 326° |
| 2026-05-07 10:40 | 7.82773 | 98.78194 | 10690 ft | 283 kts | 326° |
| 2026-05-07 10:41 | 7.83852 | 98.77409 | 10598 ft | 283 kts | 326° |
| 2026-05-07 10:41 | 7.85961 | 98.75873 | 10430 ft | 282 kts | 326° |
| 2026-05-07 10:41 | 7.87036 | 98.75089 | 10349 ft | 282 kts | 326° |
| 2026-05-07 10:41 | 7.88626 | 98.73931 | 10224 ft | 282 kts | 326° |
| 2026-05-07 10:42 | 7.90193 | 98.72789 | 10102 ft | 281 kts | 326° |
| 2026-05-07 10:42 | 7.91781 | 98.71635 | 9914 ft | 282 kts | 326° |
| 2026-05-07 10:42 | 7.93405 | 98.70455 | 9453 ft | 289 kts | 326° |
| 2026-05-07 10:42 | 7.95030 | 98.69271 | 9318 ft | 281 kts | 326° |
| 2026-05-07 10:43 | 7.96602 | 98.68127 | 9073 ft | 277 kts | 326° |
| 2026-05-07 10:43 | 7.98154 | 98.67000 | 8605 ft | 274 kts | 326° |
| 2026-05-07 10:43 | 7.99694 | 98.65881 | 8106 ft | 272 kts | 326° |
| 2026-05-07 10:43 | 8.01211 | 98.64777 | 7805 ft | 262 kts | 326° |
| 2026-05-07 10:44 | 8.02638 | 98.63733 | 7678 ft | 245 kts | 326° |
| 2026-05-07 10:44 | 8.03992 | 98.62744 | 7392 ft | 237 kts | 326° |
| 2026-05-07 10:44 | 8.05321 | 98.61779 | 7000 ft | 234 kts | 326° |
| 2026-05-07 10:44 | 8.06648 | 98.60815 | 6468 ft | 238 kts | 326° |
| 2026-05-07 10:45 | 8.08011 | 98.59825 | 5861 ft | 244 kts | 326° |
| 2026-05-07 10:45 | 8.09390 | 98.58821 | 5244 ft | 251 kts | 326° |
| 2026-05-07 10:45 | 8.10797 | 98.57795 | 4909 ft | 245 kts | 326° |
| 2026-05-07 10:45 | 8.12136 | 98.56803 | 4757 ft | 234 kts | 322° |
| 2026-05-07 10:46 | 8.13118 | 98.55533 | 4654 ft | 229 kts | 294° |
| 2026-05-07 10:46 | 8.13432 | 98.53966 | 4344 ft | 232 kts | 267° |
| 2026-05-07 10:46 | 8.13281 | 98.52338 | 4006 ft | 233 kts | 264° |
| 2026-05-07 10:46 | 8.13121 | 98.50705 | 3685 ft | 234 kts | 264° |
| 2026-05-07 10:47 | 8.12963 | 98.49064 | 3362 ft | 235 kts | 264° |
| 2026-05-07 10:47 | 8.12807 | 98.47422 | 3066 ft | 233 kts | 264° |
| 2026-05-07 10:47 | 8.12655 | 98.45824 | 2757 ft | 228 kts | 264° |
| 2026-05-07 10:47 | 8.12507 | 98.44244 | 2415 ft | 225 kts | 265° |
| 2026-05-07 10:48 | 8.12362 | 98.42699 | 2090 ft | 215 kts | 264° |
| 2026-05-07 10:48 | 8.12225 | 98.41249 | 1818 ft | 200 kts | 264° |
| 2026-05-07 10:48 | 8.12096 | 98.39902 | 1557 ft | 185 kts | 265° |
| 2026-05-07 10:48 | 8.11979 | 98.38673 | 1284 ft | 171 kts | 265° |
| 2026-05-07 10:49 | 8.11871 | 98.37521 | 1053 ft | 159 kts | 264° |
| 2026-05-07 10:49 | 8.11771 | 98.36439 | 836 ft | 152 kts | 266° |
| 2026-05-07 10:49 | 8.11673 | 98.35401 | 635 ft | 147 kts | 266° |
| 2026-05-07 10:49 | 8.11569 | 98.34385 | 433 ft | 145 kts | 265° |
| 2026-05-07 10:50 | 8.11481 | 98.33379 | 226 ft | 142 kts | 266° |
| 2026-05-07 10:50 | 8.11388 | 98.32399 | 80 ft | 133 kts | 266° |
| 2026-05-07 10:50 | 8.11316 | 98.31578 | 40 ft | 119 kts | 265° |
| 2026-05-07 10:50 | 8.11255 | 98.30955 | 29 ft | 43 kts | 265° |
| 2026-05-07 10:51 | 8.11228 | 98.30675 | 28 ft | 34 kts | 264° |
| 2026-05-07 10:51 | 8.11212 | 98.30548 | 28 ft | 14 kts | 242° |
| 2026-05-07 10:51 | 8.11134 | 98.30515 | 27 ft | 14 kts | 192° |
| 2026-05-07 10:51 | 8.11033 | 98.30490 | 27 ft | 16 kts | 194° |
| 2026-05-07 10:52 | 8.10916 | 98.30459 | 27 ft | 18 kts | 193° |
| 2026-05-07 10:52 | 8.10812 | 98.30432 | 27 ft | 10 kts | 194° |
| 2026-05-07 10:52 | 8.10737 | 98.30412 | 27 ft | 13 kts | 195° |
| 2026-05-07 10:52 | 8.10644 | 98.30387 | 27 ft | 12 kts | 195° |
| 2026-05-07 10:53 | 8.10597 | 98.30398 | 27 ft | 8 kts | 101° |
| 2026-05-07 10:53 | 8.10587 | 98.30452 | 27 ft | 4 kts | 105° |
| 2026-05-07 10:53 | 8.10584 | 98.30461 | 27 ft | 1 kts | 106° |
| 2026-05-07 10:53 | 8.10583 | 98.30465 | 27 ft | 0 kts | 106° |